createdAt,value
2023-11-20T00:01:26.172Z,99875.40
2023-11-20T00:03:54.881Z,99880.40
2023-11-20T00:06:23.023Z,99877.80
2023-11-20T00:08:51.025Z,99880.80
2023-11-20T00:11:19.046Z,99880.60
2023-11-20T00:13:47.252Z,99882.20
2023-11-20T00:16:15.358Z,99885.40
2023-11-20T00:18:43.394Z,99889.00
2023-11-20T00:21:11.556Z,99881.00
2023-11-20T00:23:40.171Z,99877.60
2023-11-20T00:26:15.658Z,99882.20
2023-11-20T00:28:43.759Z,99877.80
2023-11-20T00:31:18.901Z,99879.00
2023-11-20T00:33:46.872Z,99875.80
2023-11-20T00:36:14.885Z,99880.40
2023-11-20T00:38:43.142Z,99876.00
2023-11-20T00:41:11.197Z,99869.20
2023-11-20T00:43:40.744Z,99872.80
2023-11-20T00:46:09.108Z,99882.60
2023-11-20T00:48:37.280Z,99881.60
2023-11-20T00:51:05.612Z,99886.00
2023-11-20T00:53:33.549Z,99887.20
2023-11-20T00:56:01.528Z,99882.40
2023-11-20T00:58:29.536Z,99882.80
2023-11-20T01:00:59.480Z,99878.80
2023-11-20T01:03:28.620Z,99876.00
2023-11-20T01:05:56.922Z,99870.80
2023-11-20T01:08:24.913Z,99870.40
2023-11-20T01:10:52.920Z,99864.60
2023-11-20T01:13:20.841Z,99866.80
2023-11-20T01:15:48.909Z,99872.60
2023-11-20T01:18:17.437Z,99872.40
2023-11-20T01:20:46.157Z,99880.20
2023-11-20T01:23:14.078Z,99885.60
2023-11-20T01:25:42.211Z,99888.00
2023-11-20T01:28:10.372Z,99892.00
2023-11-20T01:30:38.365Z,99888.60
2023-11-20T01:33:06.423Z,99883.80
2023-11-20T01:35:34.419Z,99882.80
2023-11-20T01:38:02.495Z,99878.60
2023-11-20T01:40:30.478Z,99883.60
2023-11-20T01:42:58.579Z,99878.00
2023-11-20T01:45:26.544Z,99885.60
2023-11-20T01:47:54.694Z,99884.40
2023-11-20T01:50:22.794Z,99882.20
2023-11-20T01:52:51.925Z,99883.00
2023-11-20T01:55:21.513Z,99883.00
2023-11-20T01:57:51.672Z,99886.00
2023-11-20T02:00:20.891Z,99891.40
2023-11-20T02:02:51.466Z,99887.80
2023-11-20T02:05:20.893Z,99880.40
2023-11-20T02:07:48.902Z,99888.60
2023-11-20T02:10:19.028Z,99890.00
2023-11-20T02:12:47.387Z,99893.60
2023-11-20T02:15:15.732Z,99889.80
2023-11-20T02:17:43.800Z,99886.20
2023-11-20T02:20:12.114Z,99885.20
2023-11-20T02:22:40.141Z,99885.60
2023-11-20T02:25:09.035Z,99888.00
2023-11-20T02:28:17.102Z,99890.80
2023-11-20T02:30:45.394Z,99878.60
2023-11-20T02:33:13.635Z,99877.00
2023-11-20T02:35:41.728Z,99870.40
2023-11-20T02:38:09.695Z,99867.60
2023-11-20T02:40:38.022Z,99870.60
2023-11-20T02:43:06.879Z,99874.80
2023-11-20T02:45:36.533Z,99868.20
2023-11-20T02:48:05.362Z,99870.00
2023-11-20T02:50:35.479Z,99871.00
2023-11-20T02:53:03.505Z,99867.20
2023-11-20T02:55:31.875Z,99871.20
2023-11-20T02:58:01.489Z,99871.00
2023-11-20T03:00:29.512Z,99865.60
2023-11-20T03:02:57.550Z,99865.40
2023-11-20T03:05:25.715Z,99863.40
2023-11-20T03:07:53.736Z,99868.00
2023-11-20T03:10:22.273Z,99872.40
2023-11-20T03:12:50.315Z,99864.80
2023-11-20T03:15:18.346Z,99866.00
2023-11-20T03:17:46.381Z,99864.20
2023-11-20T03:20:14.564Z,99872.40
2023-11-20T03:22:42.619Z,99871.60
2023-11-20T03:25:10.957Z,99871.40
2023-11-20T03:27:40.509Z,99862.60
2023-11-20T03:30:10.509Z,99861.20
2023-11-20T03:32:38.541Z,99860.80
2023-11-20T03:35:06.897Z,99862.80
2023-11-20T03:37:35.575Z,99868.80
2023-11-20T03:40:05.280Z,99863.40
2023-11-20T03:42:33.339Z,99859.60
2023-11-20T03:45:02.285Z,99854.20
2023-11-20T03:47:30.262Z,99858.60
2023-11-20T03:49:58.245Z,99856.20
2023-11-20T03:52:27.666Z,99854.60
2023-11-20T03:54:55.780Z,99853.40
2023-11-20T03:57:23.999Z,99850.00
2023-11-20T03:59:52.001Z,99855.00
2023-11-20T04:02:20.354Z,99850.40
2023-11-20T04:04:48.405Z,99851.00
2023-11-20T04:07:16.453Z,99856.40
2023-11-20T04:09:44.440Z,99860.20
2023-11-20T04:12:12.493Z,99856.20
2023-11-20T04:14:40.518Z,99861.40
2023-11-20T04:17:09.112Z,99858.80
2023-11-20T04:19:37.567Z,99860.80
2023-11-20T04:22:08.736Z,99862.00
2023-11-20T04:24:37.046Z,99854.60
2023-11-20T04:27:05.372Z,99857.00
2023-11-20T04:29:33.238Z,99854.20
2023-11-20T04:32:01.240Z,99853.40
2023-11-20T04:34:29.257Z,99849.60
2023-11-20T04:36:57.285Z,99854.80
2023-11-20T04:39:25.235Z,99854.80
2023-11-20T04:41:53.271Z,99850.40
2023-11-20T04:44:21.269Z,99853.60
2023-11-20T04:46:49.246Z,99855.40
2023-11-20T04:49:17.217Z,99855.20
2023-11-20T04:51:45.280Z,99855.00
2023-11-20T04:54:13.352Z,99852.20
2023-11-20T04:56:41.450Z,99851.20
2023-11-20T04:59:10.469Z,99857.60
2023-11-20T05:01:38.665Z,99855.40
2023-11-20T05:04:07.085Z,99854.00
2023-11-20T05:06:35.099Z,99864.80
2023-11-20T05:09:03.422Z,99854.60
2023-11-20T05:11:31.459Z,99861.20
2023-11-20T05:14:00.834Z,99863.60
2023-11-20T05:16:30.141Z,99861.40
2023-11-20T05:18:58.306Z,99864.60
2023-11-20T05:21:26.310Z,99863.40
2023-11-20T05:23:54.284Z,99865.80
2023-11-20T05:26:22.415Z,99873.80
2023-11-20T05:28:52.403Z,99874.40
2023-11-20T05:31:20.446Z,99872.20
2023-11-20T05:33:48.962Z,99869.00
2023-11-20T05:36:17.084Z,99870.40
2023-11-20T05:38:45.080Z,99870.60
2023-11-20T05:41:13.196Z,99869.60
2023-11-20T05:43:41.905Z,99872.00
2023-11-20T05:46:09.977Z,99880.80
2023-11-20T05:48:38.529Z,99879.80
2023-11-20T05:51:06.636Z,99884.00
2023-11-20T05:53:34.733Z,99885.40
2023-11-20T05:56:03.233Z,99888.00
2023-11-20T05:58:31.369Z,99886.60
2023-11-20T06:00:59.840Z,99892.00
2023-11-20T06:03:27.996Z,99889.80
2023-11-20T06:05:56.056Z,99893.60
2023-11-20T06:08:24.586Z,99895.60
2023-11-20T06:10:52.508Z,99895.40
2023-11-20T06:13:20.632Z,99897.60
2023-11-20T06:15:48.638Z,99894.80
2023-11-20T06:18:16.661Z,99905.20
2023-11-20T06:20:44.883Z,99908.80
2023-11-20T06:23:13.668Z,99916.00
2023-11-20T06:25:41.628Z,99906.00
2023-11-20T06:28:09.593Z,99911.20
2023-11-20T06:30:37.802Z,99912.60
2023-11-20T06:33:06.258Z,99918.40
2023-11-20T06:35:34.216Z,99917.00
2023-11-20T06:38:02.156Z,99921.00
2023-11-20T06:40:30.311Z,99919.60
2023-11-20T06:42:58.748Z,99914.40
2023-11-20T06:45:26.717Z,99911.60
2023-11-20T06:47:54.704Z,99917.00
2023-11-20T06:50:22.780Z,99909.20
2023-11-20T06:52:53.380Z,99915.00
2023-11-20T06:55:22.849Z,99915.40
2023-11-20T06:57:51.127Z,99918.20
2023-11-20T07:00:20.002Z,99927.40
2023-11-20T07:02:48.649Z,99929.80
2023-11-20T07:05:17.856Z,99937.60
2023-11-20T07:07:55.117Z,99943.00
2023-11-20T07:10:24.743Z,99947.40
2023-11-20T07:12:58.052Z,99945.00
2023-11-20T07:15:26.255Z,99944.20
2023-11-20T07:17:54.360Z,99948.40
2023-11-20T07:20:23.047Z,99947.00
2023-11-20T07:22:51.262Z,99960.00
2023-11-20T07:25:19.309Z,99966.20
2023-11-20T07:27:47.315Z,99966.40
2023-11-20T07:30:16.172Z,99969.00
2023-11-20T07:32:45.235Z,99969.40
2023-11-20T07:35:14.707Z,99963.80
2023-11-20T07:37:43.588Z,99963.80
2023-11-20T07:40:13.235Z,99961.80
2023-11-20T07:42:42.223Z,99961.20
2023-11-20T07:45:12.462Z,99962.60
2023-11-20T07:47:41.801Z,99972.40
2023-11-20T07:50:12.259Z,99970.80
2023-11-20T07:52:40.571Z,99975.20
2023-11-20T07:55:09.759Z,99976.60
2023-11-20T07:57:38.131Z,99976.00
2023-11-20T08:00:07.200Z,99978.20
2023-11-20T08:02:35.441Z,99976.00
2023-11-20T08:05:06.627Z,99973.20
2023-11-20T08:07:35.000Z,99979.80
2023-11-20T08:10:06.610Z,99980.20
2023-11-20T08:12:35.986Z,99981.80
2023-11-20T08:15:07.044Z,99980.40
2023-11-20T08:17:36.028Z,99983.00
2023-11-20T08:20:07.777Z,99984.20
2023-11-20T08:22:37.221Z,99984.00
2023-11-20T08:25:05.897Z,99987.60
2023-11-20T08:27:33.957Z,99992.20
2023-11-20T08:30:02.363Z,99990.00
2023-11-20T08:32:30.389Z,99987.00
2023-11-20T08:34:58.588Z,99992.80
2023-11-20T08:37:26.618Z,99993.40
2023-11-20T08:39:54.542Z,99992.40
2023-11-20T08:42:23.677Z,99985.00
2023-11-20T08:44:51.683Z,99988.20
2023-11-20T08:47:19.803Z,99992.60
2023-11-20T08:49:47.980Z,99996.60
2023-11-20T08:52:16.416Z,99995.80
2023-11-20T08:54:44.495Z,99997.20
2023-11-20T08:57:12.474Z,99996.60
2023-11-20T08:59:40.505Z,99994.60
2023-11-20T09:02:08.549Z,99991.80
2023-11-20T09:04:36.577Z,99996.60
2023-11-20T09:07:04.957Z,99999.40
2023-11-20T09:09:32.956Z,99997.00
2023-11-20T09:12:02.203Z,99996.80
2023-11-20T09:14:30.380Z,99997.20
2023-11-20T09:16:59.000Z,99999.80
2023-11-20T09:19:27.660Z,99995.60
2023-11-20T09:21:55.677Z,99991.40
2023-11-20T09:24:23.692Z,99988.40
2023-11-20T09:26:51.642Z,99986.20
2023-11-20T09:29:19.709Z,99987.40
2023-11-20T09:31:49.353Z,99988.20
2023-11-20T09:34:20.107Z,99982.60
2023-11-20T09:36:48.202Z,99979.60
2023-11-20T09:39:16.243Z,99982.20
2023-11-20T09:41:44.535Z,99982.80
2023-11-20T09:44:13.807Z,99980.00
2023-11-20T09:46:45.884Z,99975.20
2023-11-20T09:49:24.150Z,99980.60
2023-11-20T09:51:58.057Z,99976.40
2023-11-20T09:54:26.612Z,99978.00
2023-11-20T09:56:55.101Z,99978.60
2023-11-20T09:59:23.148Z,99982.80
2023-11-20T10:01:53.230Z,99980.80
2023-11-20T10:04:25.553Z,99978.60
2023-11-20T10:06:56.194Z,99978.40
2023-11-20T10:09:25.341Z,99977.00
2023-11-20T10:11:57.976Z,99972.00
2023-11-20T10:14:25.952Z,99973.00
2023-11-20T10:16:55.083Z,99972.20
2023-11-20T10:19:23.487Z,99973.40
2023-11-20T10:21:52.641Z,99968.60
2023-11-20T10:24:20.687Z,99974.40
2023-11-20T10:26:48.813Z,99973.40
2023-11-20T10:29:17.430Z,99976.00
2023-11-20T10:31:48.144Z,99968.40
2023-11-20T10:34:19.192Z,99971.80
2023-11-20T10:37:06.006Z,99974.80
2023-11-20T10:39:34.247Z,99974.40
2023-11-20T10:42:03.071Z,99978.40
2023-11-20T10:44:33.061Z,99975.80
2023-11-20T10:47:01.286Z,99982.80
2023-11-20T10:49:37.059Z,99979.00
2023-11-20T10:52:16.931Z,99980.20
2023-11-20T10:54:49.725Z,99974.80
2023-11-20T10:57:19.815Z,99974.00
2023-11-20T10:59:48.676Z,99968.00
2023-11-20T11:02:21.591Z,99967.00
2023-11-20T11:04:55.922Z,99962.20
2023-11-20T11:07:26.281Z,99964.20
2023-11-20T11:09:54.807Z,99963.20
2023-11-20T11:12:33.142Z,99954.40
2023-11-20T11:15:01.189Z,99956.60
2023-11-20T11:17:34.901Z,99959.40
2023-11-20T11:20:11.209Z,99960.80
2023-11-20T11:22:45.286Z,99956.80
2023-11-20T11:25:15.464Z,99959.60
2023-11-20T11:27:58.070Z,99957.80
2023-11-20T11:30:32.269Z,99953.60
2023-11-20T11:33:34.034Z,99954.80
2023-11-20T11:36:10.326Z,99946.40
2023-11-20T11:38:42.457Z,99943.80
2023-11-20T11:41:39.066Z,99950.00
2023-11-20T11:44:23.433Z,99952.00
2023-11-20T11:46:52.082Z,99947.60
2023-11-20T11:49:24.624Z,99955.40
2023-11-20T11:52:05.148Z,99953.60
2023-11-20T11:54:33.706Z,99955.40
2023-11-20T11:57:14.495Z,99954.40
2023-11-20T11:59:47.067Z,99953.60
2023-11-20T12:02:20.015Z,99962.20
2023-11-20T12:04:51.321Z,99961.60
2023-11-20T12:07:37.879Z,99958.20
2023-11-20T12:10:13.502Z,99963.00
2023-11-20T12:12:49.571Z,99964.00
2023-11-20T12:15:37.501Z,99966.80
2023-11-20T12:18:22.609Z,99956.80
2023-11-20T12:20:56.765Z,99958.80
2023-11-20T12:23:24.666Z,99957.80
2023-11-20T12:25:57.624Z,99961.40
2023-11-20T12:28:29.115Z,99965.80
2023-11-20T12:30:57.086Z,99965.00
2023-11-20T12:33:25.077Z,99962.80
2023-11-20T12:35:56.936Z,99963.80
2023-11-20T12:38:25.612Z,99965.20
2023-11-20T12:40:55.735Z,99965.00
2023-11-20T12:43:25.680Z,99965.00
2023-11-20T12:45:53.969Z,99971.60
2023-11-20T12:48:22.209Z,99978.00
2023-11-20T12:50:51.124Z,99981.20
2023-11-20T12:53:21.125Z,99979.40
2023-11-20T12:55:54.523Z,99985.20
2023-11-20T12:58:23.279Z,99982.20
2023-11-20T13:00:54.490Z,99977.40
2023-11-20T13:03:23.382Z,99979.80
2023-11-20T13:05:54.932Z,99977.00
2023-11-20T13:08:25.253Z,99980.00
2023-11-20T13:11:02.979Z,99986.20
2023-11-20T13:13:36.625Z,99990.00
2023-11-20T13:16:17.490Z,99991.40
2023-11-20T13:18:51.379Z,99995.80
2023-11-20T13:21:27.662Z,99997.00
2023-11-20T13:24:01.193Z,99999.20
2023-11-20T13:26:29.889Z,100003.40
2023-11-20T13:28:59.201Z,100003.40
2023-11-20T13:31:36.152Z,99998.40
2023-11-20T13:34:08.391Z,99997.00
2023-11-20T13:36:39.396Z,100000.00
2023-11-20T13:39:09.605Z,100000.60
2023-11-20T13:41:38.459Z,99997.40
2023-11-20T13:44:06.810Z,99996.60
2023-11-20T13:46:38.403Z,99987.60
2023-11-20T13:49:06.905Z,99996.40
2023-11-20T13:51:35.027Z,99996.80
2023-11-20T13:54:02.948Z,99997.20
2023-11-20T13:56:31.559Z,99997.20
2023-11-20T13:59:00.721Z,99997.80
2023-11-20T14:01:29.335Z,100003.20
2023-11-20T14:03:58.994Z,100004.20
2023-11-20T14:06:27.189Z,100005.40
2023-11-20T14:08:56.759Z,100001.80
2023-11-20T14:11:24.796Z,100006.60
2023-11-20T14:13:53.748Z,100004.00
2023-11-20T14:16:24.541Z,100010.80
2023-11-20T14:18:53.107Z,100008.00
2023-11-20T14:21:21.922Z,100015.20
2023-11-20T14:23:50.132Z,100021.60
2023-11-20T14:26:29.732Z,100019.00
2023-11-20T14:29:04.507Z,100026.80
2023-11-20T14:31:32.915Z,100026.20
2023-11-20T14:34:01.590Z,100031.60
2023-11-20T14:36:30.057Z,100035.40
2023-11-20T14:38:59.656Z,100034.80
2023-11-20T14:41:28.336Z,100040.80
2023-11-20T14:43:56.377Z,100037.80
2023-11-20T14:46:24.401Z,100041.80
2023-11-20T14:48:52.533Z,100038.40
2023-11-20T14:51:24.153Z,100039.60
2023-11-20T14:53:54.888Z,100046.20
2023-11-20T14:56:23.316Z,100050.60
2023-11-20T14:58:51.841Z,100055.20
2023-11-20T15:01:21.370Z,100055.00
2023-11-20T15:03:49.993Z,100067.00
2023-11-20T15:06:19.239Z,100080.20
2023-11-20T15:08:47.203Z,100071.40
2023-11-20T15:11:16.324Z,100075.80
2023-11-20T15:13:44.996Z,100076.40
2023-11-20T15:16:13.321Z,100084.00
2023-11-20T15:18:41.459Z,100079.60
2023-11-20T15:21:09.500Z,100092.20
2023-11-20T15:23:37.498Z,100095.40
2023-11-20T15:26:05.766Z,100100.40
2023-11-20T15:28:33.845Z,100094.20
2023-11-20T15:31:02.353Z,100094.00
2023-11-20T15:33:30.368Z,100090.00
2023-11-20T15:35:58.376Z,100088.40
2023-11-20T15:38:26.329Z,100088.40
2023-11-20T15:40:54.654Z,100090.80
2023-11-20T15:43:22.722Z,100095.60
2023-11-20T15:45:54.365Z,100097.80
2023-11-20T15:48:24.430Z,100096.80
2023-11-20T15:50:55.618Z,100101.40
2023-11-20T15:53:23.977Z,100107.40
2023-11-20T15:55:52.095Z,100106.20
2023-11-20T15:58:21.783Z,100112.80
2023-11-20T16:00:51.044Z,100110.00
2023-11-20T16:03:20.434Z,100111.20
2023-11-20T16:05:49.367Z,100110.00
2023-11-20T16:08:18.158Z,100114.20
2023-11-20T16:10:48.672Z,100109.20
2023-11-20T16:13:17.900Z,100108.40
2023-11-20T16:15:47.152Z,100107.40
2023-11-20T16:18:16.472Z,100108.00
2023-11-20T16:20:48.649Z,100112.40
2023-11-20T16:23:17.713Z,100116.20
2023-11-20T16:25:48.574Z,100115.80
2023-11-20T16:28:17.297Z,100117.00
2023-11-20T16:30:49.960Z,100120.00
2023-11-20T16:33:18.085Z,100118.20
2023-11-20T16:35:46.027Z,100122.20
2023-11-20T16:38:14.741Z,100126.60
2023-11-20T16:40:49.461Z,100132.20
2023-11-20T16:43:18.683Z,100129.00
2023-11-20T16:45:50.273Z,100129.60
2023-11-20T16:48:18.993Z,100134.80
2023-11-20T16:50:55.302Z,100139.20
2023-11-20T16:53:23.840Z,100139.00
2023-11-20T16:56:03.616Z,100140.60
2023-11-20T16:58:34.051Z,100141.00
2023-11-20T17:01:04.057Z,100145.40
2023-11-20T17:03:34.839Z,100145.40
2023-11-20T17:06:05.976Z,100148.00
2023-11-20T17:08:36.706Z,100149.00
2023-11-20T17:11:05.748Z,100146.40
2023-11-20T17:13:33.959Z,100150.40
2023-11-20T17:16:02.528Z,100146.00
2023-11-20T17:18:30.821Z,100148.80
2023-11-20T17:20:59.185Z,100149.80
2023-11-20T17:23:27.301Z,100150.80
2023-11-20T17:25:55.284Z,100153.20
2023-11-20T17:28:23.602Z,100152.20
2023-11-20T17:30:51.704Z,100157.80
2023-11-20T17:33:20.315Z,100156.80
2023-11-20T17:35:48.495Z,100161.40
2023-11-20T17:38:16.613Z,100164.80
2023-11-20T17:40:44.947Z,100164.00
2023-11-20T17:43:13.682Z,100164.40
2023-11-20T17:45:43.410Z,100169.00
2023-11-20T17:48:14.384Z,100172.00
2023-11-20T17:50:42.478Z,100167.60
2023-11-20T17:53:10.890Z,100169.60
2023-11-20T17:55:40.040Z,100173.60
2023-11-20T17:58:08.398Z,100176.00
2023-11-20T18:00:36.825Z,100179.40
2023-11-20T18:03:08.139Z,100188.40
2023-11-20T18:05:41.834Z,100190.00
2023-11-20T18:08:30.024Z,100197.20
2023-11-20T18:10:58.148Z,100196.40
2023-11-20T18:13:26.323Z,100198.60
2023-11-20T18:16:10.936Z,100195.40
2023-11-20T18:18:39.138Z,100206.20
2023-11-20T18:21:08.417Z,100204.40
2023-11-20T18:23:36.684Z,100206.40
2023-11-20T18:26:05.836Z,100207.60
2023-11-20T18:28:34.733Z,100210.20
2023-11-20T18:31:04.737Z,100205.80
2023-11-20T18:33:34.363Z,100208.40
2023-11-20T18:36:04.566Z,100207.00
2023-11-20T18:38:32.666Z,100203.80
2023-11-20T18:41:01.444Z,100205.60
2023-11-20T18:43:30.678Z,100209.60
2023-11-20T18:45:59.437Z,100223.40
2023-11-20T18:48:28.272Z,100221.80
2023-11-20T18:50:57.003Z,100230.00
2023-11-20T18:53:25.048Z,100228.20
2023-11-20T18:55:53.362Z,100227.40
2023-11-20T18:58:22.223Z,100232.80
2023-11-20T19:00:50.383Z,100234.00
2023-11-20T19:03:18.656Z,100235.20
2023-11-20T19:05:46.812Z,100237.00
2023-11-20T19:08:18.013Z,100232.00
2023-11-20T19:10:48.530Z,100236.80
2023-11-20T19:13:16.768Z,100238.40
2023-11-20T19:15:44.964Z,100237.60
2023-11-20T19:18:14.562Z,100241.00
2023-11-20T19:20:43.022Z,100241.40
2023-11-20T19:23:12.343Z,100239.80
2023-11-20T19:25:41.009Z,100243.20
2023-11-20T19:28:09.512Z,100239.00
2023-11-20T19:30:39.915Z,100243.40
2023-11-20T19:33:11.352Z,100246.40
2023-11-20T19:35:41.326Z,100247.80
2023-11-20T19:38:13.628Z,100248.40
2023-11-20T19:40:42.032Z,100242.80
2023-11-20T19:43:10.511Z,100250.00
2023-11-20T19:45:39.240Z,100247.60
2023-11-20T19:48:07.556Z,100255.00
2023-11-20T19:50:36.431Z,100251.20
2023-11-20T19:53:07.441Z,100246.60
2023-11-20T19:55:35.512Z,100248.40
2023-11-20T19:58:04.941Z,100249.80
2023-11-20T20:00:33.944Z,100253.20
2023-11-20T20:03:02.106Z,100253.40
2023-11-20T20:05:30.431Z,100258.40
2023-11-20T20:08:00.323Z,100256.00
2023-11-20T20:10:29.325Z,100259.80
2023-11-20T20:12:57.729Z,100257.20
2023-11-20T20:15:26.139Z,100255.80
2023-11-20T20:17:59.087Z,100260.00
2023-11-20T20:20:30.874Z,100257.80
2023-11-20T20:23:01.568Z,100264.00
2023-11-20T20:25:31.142Z,100264.40
2023-11-20T20:27:59.643Z,100263.20
2023-11-20T20:30:29.511Z,100267.60
2023-11-20T20:32:57.944Z,100270.40
2023-11-20T20:35:28.747Z,100271.60
2023-11-20T20:37:56.781Z,100275.40
2023-11-20T20:40:28.829Z,100282.20
2023-11-20T20:43:01.209Z,100287.60
2023-11-20T20:45:30.161Z,100294.20
2023-11-20T20:47:58.577Z,100293.00
2023-11-20T20:50:27.296Z,100287.80
2023-11-20T20:52:55.274Z,100294.00
2023-11-20T20:55:23.397Z,100292.40
2023-11-20T20:57:54.088Z,100293.80
2023-11-20T21:00:22.513Z,100298.80
2023-11-20T21:02:51.447Z,100303.20
2023-11-20T21:05:19.786Z,100309.40
2023-11-20T21:07:47.930Z,100308.80
2023-11-20T21:10:17.941Z,100309.60
2023-11-20T21:12:46.074Z,100310.60
2023-11-20T21:15:15.769Z,100311.40
2023-11-20T21:17:46.235Z,100312.00
2023-11-20T21:20:15.934Z,100309.20
2023-11-20T21:22:45.943Z,100309.20
2023-11-20T21:25:14.486Z,100300.20
2023-11-20T21:27:44.049Z,100302.80
2023-11-20T21:30:13.223Z,100302.80
2023-11-20T21:32:42.629Z,100306.60
2023-11-20T21:35:11.691Z,100306.80
2023-11-20T21:37:39.923Z,100310.40
2023-11-20T21:40:11.045Z,100318.60
2023-11-20T21:42:39.327Z,100317.00
2023-11-20T21:45:08.250Z,100316.20
2023-11-20T21:47:36.554Z,100318.40
2023-11-20T21:50:06.063Z,100316.60
2023-11-20T21:52:34.499Z,100320.40
2023-11-20T21:55:03.384Z,100324.60
2023-11-20T21:57:31.492Z,100333.60
2023-11-20T21:59:59.433Z,100332.40
2023-11-20T22:02:27.414Z,100333.80
2023-11-20T22:04:55.526Z,100336.20
2023-11-20T22:07:24.257Z,100340.80
2023-11-20T22:09:52.847Z,100338.60
2023-11-20T22:12:20.972Z,100343.40
2023-11-20T22:14:48.992Z,100349.60
2023-11-20T22:17:16.926Z,100349.60
2023-11-20T22:19:45.000Z,100355.40
2023-11-20T22:22:15.726Z,100357.60
2023-11-20T22:24:43.949Z,100368.00
2023-11-20T22:27:12.725Z,100366.80
2023-11-20T22:29:41.926Z,100374.20
2023-11-20T22:32:10.042Z,100367.20
2023-11-20T22:34:38.034Z,100362.80
2023-11-20T22:37:06.101Z,100369.60
2023-11-20T22:39:34.381Z,100375.20
2023-11-20T22:42:02.326Z,100366.20
2023-11-20T22:44:30.299Z,100367.20
2023-11-20T22:46:58.287Z,100369.80
2023-11-20T22:49:26.417Z,100368.40
2023-11-20T22:51:54.397Z,100369.20
2023-11-20T22:54:24.276Z,100367.80
2023-11-20T22:56:52.321Z,100370.40
2023-11-20T22:59:20.524Z,100369.40
2023-11-20T23:01:48.544Z,100370.00
2023-11-20T23:04:17.140Z,100373.40
2023-11-20T23:06:45.397Z,100374.40
2023-11-20T23:09:16.933Z,100371.20
2023-11-20T23:11:45.034Z,100374.00
2023-11-20T23:14:13.012Z,100375.40
2023-11-20T23:16:41.036Z,100375.40
2023-11-20T23:19:09.075Z,100372.20
2023-11-20T23:21:37.079Z,100378.60
2023-11-20T23:24:06.250Z,100380.40
2023-11-20T23:26:34.869Z,100383.60
2023-11-20T23:29:05.637Z,100385.60
2023-11-20T23:31:37.984Z,100381.80
2023-11-20T23:34:06.327Z,100381.80
2023-11-20T23:36:34.557Z,100388.20
2023-11-20T23:39:02.671Z,100388.60
2023-11-20T23:41:30.596Z,100390.80
2023-11-20T23:43:58.537Z,100395.20
2023-11-20T23:46:28.471Z,100387.00
2023-11-20T23:48:58.188Z,100387.00
2023-11-20T23:51:26.526Z,100388.00
2023-11-20T23:53:54.489Z,100391.80
2023-11-20T23:56:22.503Z,100393.00
2023-11-20T23:58:51.122Z,100393.80
